Time,TemperatureF,DewpointF,PressureIn,WindDirection,WindDirectionDegrees,WindSpeedMPH,WindSpeedGustMPH,Humidity,HourlyPrecipIn,Conditions,Clouds,dailyrainin,SoftwareType,DateUTC
2013-02-08 00:01:00,50.8,50.0,29.96,West,262,0.0,0.0,98,0.00,,,0.00,weatherlink.com 1.10,2013-02-08 06:01:00,
2013-02-08 00:16:00,50.9,50.0,29.96,West,262,0.0,0.0,98,0.00,,,0.00,weatherlink.com 1.10,2013-02-08 06:16:00,
2013-02-08 00:31:00,51.0,51.0,29.96,West,262,0.0,1.0,98,0.00,,,0.00,weatherlink.com 1.10,2013-02-08 06:31:00,
2013-02-08 00:46:00,51.5,51.0,29.96,West,260,0.0,1.0,98,0.00,,,0.00,weatherlink.com 1.10,2013-02-08 06:46:00,
2013-02-08 01:01:00,51.2,51.0,29.97,West,259,0.0,0.0,98,0.00,,,0.00,weatherlink.com 1.10,2013-02-08 07:01:00,
2013-02-08 01:16:00,51.6,51.0,29.97,West,261,0.0,0.0,98,0.00,,,0.00,weatherlink.com 1.10,2013-02-08 07:16:00,
2013-02-08 01:31:00,52.1,52.0,29.97,West,260,0.0,0.0,98,0.00,,,0.00,weatherlink.com 1.10,2013-02-08 07:31:00,
2013-02-08 01:46:00,52.4,52.0,29.97,West,260,0.0,0.0,98,0.00,,,0.00,weatherlink.com 1.10,2013-02-08 07:46:00,
2013-02-08 02:01:00,52.8,52.0,29.96,West,259,0.0,0.0,98,0.00,,,0.00,weatherlink.com 1.10,2013-02-08 08:01:00,
2013-02-08 02:16:00,52.9,52.0,29.96,West,260,0.0,0.0,98,0.00,,,0.00,weatherlink.com 1.10,2013-02-08 08:16:00,
2013-02-08 02:31:00,52.7,52.0,29.96,West,260,0.0,0.0,98,0.00,,,0.00,weatherlink.com 1.10,2013-02-08 08:31:00,
2013-02-08 02:46:00,52.3,52.0,29.96,West,260,0.0,0.0,98,0.00,,,0.00,weatherlink.com 1.10,2013-02-08 08:46:00,
2013-02-08 03:01:00,51.9,51.0,29.96,West,260,0.0,0.0,98,0.00,,,0.00,weatherlink.com 1.10,2013-02-08 09:01:00,
2013-02-08 03:16:00,51.4,51.0,29.96,West,260,0.0,0.0,98,0.00,,,0.00,weatherlink.com 1.10,2013-02-08 09:16:00,
2013-02-08 03:31:00,51.9,51.0,29.96,West,260,0.0,0.0,98,0.00,,,0.00,weatherlink.com 1.10,2013-02-08 09:31:00,
2013-02-08 03:46:00,52.3,52.0,29.96,West,260,0.0,0.0,98,0.00,,,0.00,weatherlink.com 1.10,2013-02-08 09:46:00,
2013-02-08 04:01:00,52.8,52.0,29.96,West,260,0.0,0.0,98,0.00,,,0.00,weatherlink.com 1.10,2013-02-08 10:01:00,
2013-02-08 04:16:00,53.0,53.0,29.97,West,259,0.0,0.0,98,0.00,,,0.00,weatherlink.com 1.10,2013-02-08 10:16:00,
2013-02-08 04:31:00,52.3,52.0,29.97,West,260,0.0,0.0,98,0.00,,,0.00,weatherlink.com 1.10,2013-02-08 10:31:00,
2013-02-08 04:46:00,52.4,52.0,29.98,West,260,0.0,0.0,98,0.00,,,0.00,weatherlink.com 1.10,2013-02-08 10:46:00,
2013-02-08 05:01:00,52.2,52.0,29.98,West,260,0.0,0.0,98,0.00,,,0.00,weatherlink.com 1.10,2013-02-08 11:01:00,
2013-02-08 05:16:00,51.9,51.0,29.98,West,260,0.0,0.0,98,0.00,,,0.00,weatherlink.com 1.10,2013-02-08 11:16:00,
2013-02-08 05:31:00,51.8,51.0,29.98,West,260,0.0,0.0,98,0.00,,,0.00,weatherlink.com 1.10,2013-02-08 11:31:00,
2013-02-08 05:46:00,52.0,52.0,29.99,West,261,0.0,1.0,98,0.00,,,0.00,weatherlink.com 1.10,2013-02-08 11:46:00,
2013-02-08 06:01:00,51.6,51.0,29.99,West,260,0.0,0.0,98,0.00,,,0.00,weatherlink.com 1.10,2013-02-08 12:01:00,
2013-02-08 06:16:00,51.2,51.0,30.00,West,260,0.0,0.0,98,0.00,,,0.00,weatherlink.com 1.10,2013-02-08 12:16:00,
2013-02-08 06:31:00,50.9,50.0,30.00,West,260,0.0,0.0,98,0.00,,,0.00,weatherlink.com 1.10,2013-02-08 12:31:00,
2013-02-08 06:46:00,50.6,50.0,30.00,West,260,0.0,0.0,98,0.00,,,0.00,weatherlink.com 1.10,2013-02-08 12:46:00,
2013-02-08 07:01:00,50.5,50.0,30.01,West,260,0.0,0.0,98,0.00,,,0.00,weatherlink.com 1.10,2013-02-08 13:01:00,
2013-02-08 07:16:00,50.7,50.0,30.02,West,259,0.0,0.0,98,0.00,,,0.00,weatherlink.com 1.10,2013-02-08 13:16:00,
2013-02-08 07:31:00,51.8,51.0,30.02,West,260,0.0,0.0,98,0.00,,,0.00,weatherlink.com 1.10,2013-02-08 13:31:00,
2013-02-08 07:46:00,52.4,52.0,30.03,West,260,0.0,0.0,99,0.00,,,0.00,weatherlink.com 1.10,2013-02-08 13:46:00,
2013-02-08 08:01:00,53.0,53.0,30.04,West,260,0.0,0.0,99,0.00,,,0.00,weatherlink.com 1.10,2013-02-08 14:01:00,
2013-02-08 08:16:00,53.8,54.0,30.05,West,260,0.0,0.0,99,0.00,,,0.00,weatherlink.com 1.10,2013-02-08 14:16:00,
2013-02-08 08:31:00,54.4,54.0,30.05,West,260,0.0,0.0,99,0.00,,,0.00,weatherlink.com 1.10,2013-02-08 14:31:00,
2013-02-08 08:46:00,55.2,55.0,30.06,WSW,257,0.0,1.0,99,0.00,,,0.00,weatherlink.com 1.10,2013-02-08 14:46:00,
2013-02-08 09:02:00,56.6,56.0,30.07,WSW,248,0.0,1.0,99,0.00,,,0.00,weatherlink.com 1.10,2013-02-08 15:02:00,
2013-02-08 09:17:00,58.4,58.0,30.07,West,263,0.0,2.0,99,0.00,,,0.00,weatherlink.com 1.10,2013-02-08 15:17:00,
2013-02-08 09:32:00,60.0,60.0,30.08,North,4,2.0,3.0,99,0.00,,,0.00,weatherlink.com 1.10,2013-02-08 15:32:00,
2013-02-08 09:47:00,61.1,61.0,30.08,West,276,1.0,5.0,99,0.00,,,0.00,weatherlink.com 1.10,2013-02-08 15:47:00,
2013-02-08 10:02:00,61.4,61.0,30.08,WNW,284,1.0,3.0,99,0.00,,,0.00,weatherlink.com 1.10,2013-02-08 16:02:00,
2013-02-08 10:17:00,61.5,61.0,30.09,West,276,1.0,4.0,97,0.00,,,0.00,weatherlink.com 1.10,2013-02-08 16:17:00,
2013-02-08 10:32:00,62.1,61.0,30.09,SW,233,5.0,6.0,95,0.00,,,0.00,weatherlink.com 1.10,2013-02-08 16:32:00,
2013-02-08 10:47:00,63.7,61.0,30.09,NNW,341,1.0,4.0,92,0.00,,,0.00,weatherlink.com 1.10,2013-02-08 16:47:00,
2013-02-08 11:02:00,64.5,61.0,30.09,ENE,63,4.0,5.0,89,0.00,,,0.00,weatherlink.com 1.10,2013-02-08 17:02:00,
2013-02-08 11:17:00,64.8,61.0,30.09,NW,305,0.0,4.0,87,0.00,,,0.00,weatherlink.com 1.10,2013-02-08 17:17:00,
2013-02-08 11:32:00,64.7,61.0,30.09,WNW,285,1.0,4.0,86,0.00,,,0.00,weatherlink.com 1.10,2013-02-08 17:32:00,
2013-02-08 11:47:00,66.4,61.0,30.09,ENE,60,2.0,5.0,82,0.00,,,0.00,weatherlink.com 1.10,2013-02-08 17:47:00,
2013-02-08 12:02:00,66.2,60.0,30.09,NNW,328,2.0,6.0,81,0.00,,,0.00,weatherlink.com 1.10,2013-02-08 18:02:00,
2013-02-08 12:17:00,66.0,60.0,30.08,East,82,0.0,4.0,82,0.00,,,0.00,weatherlink.com 1.10,2013-02-08 18:17:00,
2013-02-08 12:32:00,67.3,60.0,30.08,WNW,294,0.0,4.0,78,0.00,,,0.00,weatherlink.com 1.10,2013-02-08 18:32:00,
2013-02-08 12:47:00,67.9,60.0,30.07,WSW,252,1.0,6.0,76,0.00,,,0.00,weatherlink.com 1.10,2013-02-08 18:47:00,
2013-02-08 13:02:00,68.7,60.0,30.07,NNW,345,2.0,5.0,74,0.00,,,0.00,weatherlink.com 1.10,2013-02-08 19:02:00,
2013-02-08 13:17:00,67.4,59.0,30.07,ENE,73,1.0,7.0,74,0.00,,,0.00,weatherlink.com 1.10,2013-02-08 19:17:00,
2013-02-08 13:32:00,65.7,59.0,30.07,North,6,0.0,7.0,80,0.00,,,0.00,weatherlink.com 1.10,2013-02-08 19:32:00,
2013-02-08 13:47:00,65.2,59.0,30.07,NW,309,2.0,11.0,80,0.00,,,0.00,weatherlink.com 1.10,2013-02-08 19:47:00,
2013-02-08 14:02:00,66.3,58.0,30.07,NE,56,4.0,6.0,75,0.00,,,0.00,weatherlink.com 1.10,2013-02-08 20:02:00,
2013-02-08 14:17:00,66.0,59.0,30.07,East,79,1.0,8.0,77,0.00,,,0.00,weatherlink.com 1.10,2013-02-08 20:17:00,
2013-02-08 14:32:00,66.3,59.0,30.07,West,278,0.0,9.0,76,0.00,,,0.00,weatherlink.com 1.10,2013-02-08 20:32:00,
2013-02-08 14:47:00,65.7,58.0,30.07,NW,305,2.0,7.0,76,0.00,,,0.00,weatherlink.com 1.10,2013-02-08 20:47:00,
2013-02-08 15:02:00,64.0,58.0,30.08,ENE,58,0.0,10.0,80,0.00,,,0.00,weatherlink.com 1.10,2013-02-08 21:02:00,
2013-02-08 15:17:00,63.2,58.0,30.08,East,79,1.0,5.0,82,0.00,,,0.00,weatherlink.com 1.10,2013-02-08 21:17:00,
2013-02-08 15:32:00,62.8,57.0,30.08,ESE,117,0.0,6.0,81,0.00,,,0.00,weatherlink.com 1.10,2013-02-08 21:32:00,
2013-02-08 15:47:00,61.4,56.0,30.09,East,79,0.0,10.0,82,0.00,,,0.00,weatherlink.com 1.10,2013-02-08 21:47:00,
2013-02-08 16:03:00,61.1,56.0,30.09,East,92,0.0,5.0,82,0.00,,,0.00,weatherlink.com 1.10,2013-02-08 22:03:00,
2013-02-08 16:17:00,61.2,56.0,30.09,ENE,72,0.0,4.0,82,0.00,,,0.00,weatherlink.com 1.10,2013-02-08 22:17:00,
2013-02-08 16:32:00,60.7,55.0,30.09,East,83,0.0,4.0,82,0.00,,,0.00,weatherlink.com 1.10,2013-02-08 22:32:00,
2013-02-08 16:47:00,60.1,55.0,30.09,ENE,61,0.0,7.0,83,0.00,,,0.00,weatherlink.com 1.10,2013-02-08 22:47:00,
2013-02-08 17:02:00,59.4,54.0,30.10,East,82,1.0,6.0,83,0.00,,,0.00,weatherlink.com 1.10,2013-02-08 23:02:00,
2013-02-08 17:18:00,58.8,53.0,30.11,WSW,252,0.0,7.0,82,0.00,,,0.00,weatherlink.com 1.10,2013-02-08 23:18:00,
2013-02-08 17:33:00,58.5,53.0,30.11,NW,308,0.0,4.0,83,0.00,,,0.00,weatherlink.com 1.10,2013-02-08 23:33:00,
2013-02-08 17:48:00,58.2,53.0,30.12,ENE,74,0.0,6.0,83,0.00,,,0.00,weatherlink.com 1.10,2013-02-08 23:48:00,
2013-02-08 18:03:00,57.8,53.0,30.12,ESE,107,1.0,5.0,83,0.00,,,0.00,weatherlink.com 1.10,2013-02-09 00:03:00,
2013-02-08 18:18:00,57.1,52.0,30.13,ESE,116,0.0,3.0,83,0.00,,,0.00,weatherlink.com 1.10,2013-02-09 00:18:00,
2013-02-08 18:33:00,56.7,52.0,30.13,East,83,1.0,6.0,84,0.00,,,0.00,weatherlink.com 1.10,2013-02-09 00:33:00,
2013-02-08 18:48:00,56.2,52.0,30.14,NE,55,2.0,6.0,84,0.00,,,0.00,weatherlink.com 1.10,2013-02-09 00:48:00,
2013-02-08 19:04:00,56.0,51.0,30.14,East,96,0.0,3.0,84,0.00,,,0.00,weatherlink.com 1.10,2013-02-09 01:04:00,
2013-02-08 19:18:00,55.8,51.0,30.15,ENE,70,1.0,3.0,85,0.00,,,0.00,weatherlink.com 1.10,2013-02-09 01:18:00,
2013-02-08 19:33:00,55.6,51.0,30.15,East,91,1.0,5.0,85,0.00,,,0.00,weatherlink.com 1.10,2013-02-09 01:33:00,
2013-02-08 19:48:00,55.4,51.0,30.15,West,273,0.0,8.0,85,0.00,,,0.00,weatherlink.com 1.10,2013-02-09 01:48:00,
2013-02-08 20:03:00,55.2,51.0,30.15,ENE,77,1.0,5.0,84,0.00,,,0.00,weatherlink.com 1.10,2013-02-09 02:03:00,
2013-02-08 20:18:00,55.1,50.0,30.15,ENE,57,2.0,5.0,84,0.00,,,0.00,weatherlink.com 1.10,2013-02-09 02:18:00,
2013-02-08 20:33:00,54.9,51.0,30.15,ENE,65,2.0,6.0,85,0.00,,,0.00,weatherlink.com 1.10,2013-02-09 02:33:00,
2013-02-08 20:48:00,54.4,50.0,30.16,ENE,78,1.0,2.0,85,0.00,,,0.00,weatherlink.com 1.10,2013-02-09 02:48:00,
2013-02-08 21:03:00,54.1,50.0,30.16,ESE,105,0.0,3.0,86,0.00,,,0.00,weatherlink.com 1.10,2013-02-09 03:03:00,
2013-02-08 21:18:00,54.3,50.0,30.16,East,89,1.0,3.0,86,0.00,,,0.00,weatherlink.com 1.10,2013-02-09 03:18:00,
2013-02-08 21:33:00,54.5,50.0,30.16,NE,49,2.0,5.0,85,0.00,,,0.00,weatherlink.com 1.10,2013-02-09 03:33:00,
2013-02-08 21:48:00,54.7,50.0,30.17,ENE,62,0.0,7.0,85,0.00,,,0.00,weatherlink.com 1.10,2013-02-09 03:48:00,
2013-02-08 22:03:00,54.6,51.0,30.16,NW,312,2.0,4.0,86,0.00,,,0.00,weatherlink.com 1.10,2013-02-09 04:03:00,
2013-02-08 22:18:00,54.6,50.0,30.16,East,82,2.0,6.0,85,0.00,,,0.00,weatherlink.com 1.10,2013-02-09 04:18:00,
2013-02-08 22:33:00,54.6,50.0,30.17,ENE,72,1.0,3.0,85,0.00,,,0.00,weatherlink.com 1.10,2013-02-09 04:33:00,
2013-02-08 22:48:00,54.5,50.0,30.17,East,98,0.0,1.0,85,0.00,,,0.00,weatherlink.com 1.10,2013-02-09 04:48:00,
2013-02-08 23:03:00,54.4,50.0,30.18,East,86,0.0,1.0,86,0.00,,,0.00,weatherlink.com 1.10,2013-02-09 05:03:00,
2013-02-08 23:18:00,54.2,50.0,30.17,East,79,1.0,2.0,86,0.00,,,0.00,weatherlink.com 1.10,2013-02-09 05:18:00,
2013-02-08 23:33:00,54.1,50.0,30.17,NNW,341,1.0,5.0,87,0.00,,,0.00,weatherlink.com 1.10,2013-02-09 05:33:00,
2013-02-08 23:48:00,53.9,50.0,30.16,ENE,74,2.0,4.0,87,0.00,,,0.00,weatherlink.com 1.10,2013-02-09 05:48:00,